Aviation Digital Data Service (ADDS)

Output produced by METARs form (0040 UTC 26 July 2017)
found at http://aviationweather.gov/adds/metars/
 
KAUS 252353Z 14015G22KT 10SM FEW065 FEW200 36/20 A2998 RMK AO2 SLP140 T03610200 10378 20339 55011
KAUS 252253Z 16011G17KT 10SM SCT065 SCT090 SCT200 38/18 A2998 RMK AO2 SLP138 T03780183
KAUS 252153Z 14011G18KT 10SM SCT065 SCT090 38/19 A3000 RMK AO2 SLP143 T03780189
KAUS 252053Z 14010KT 10SM SCT065 SCT085 37/21 A3002 RMK AO2 SLP150 T03720206 58019
KAUS 252332Z 2600/2706 16012KT P6SM SCT060 
     FM260900 18005KT P6SM BKN015 
     FM261500 19012KT P6SM SCT030
       
KRYW 260035Z AUTO 16005KT 10SM SCT080 33/18 A3003 RMK AO2 T03290178
KRYW 260015Z AUTO 17007KT 10SM SCT080 34/19 A3003 RMK AO2 T03390186
KRYW 252355Z AUTO 16004KT 10SM CLR 35/19 A3003 RMK AO2 T03460185 10361 20320
KRYW 252335Z AUTO 15006KT 10SM SCT070 35/18 A3003 RMK AO2 T03460182
KRYW 252315Z AUTO 15007KT 10SM CLR 36/18 A3003 RMK AO2 T03550177
KRYW 252255Z AUTO 17006KT 10SM CLR 36/18 A3003 RMK AO2 T03550178
KRYW 252235Z AUTO 17006KT 10SM SCT070 36/18 A3004 RMK AO2 T03610180
KRYW 252215Z AUTO 14007KT 10SM CLR 35/18 A3004 RMK AO2 T03540176
KRYW 252155Z AUTO 18009KT 10SM CLR 36/18 A3005 RMK AO2 T03600179
KRYW 252135Z AUTO 13005KT 10SM SCT080 36/18 A3005 RMK AO2 T03570181
KRYW 252115Z AUTO 15008KT 10SM SCT060 SCT080 34/19 A3006 RMK AO2 T03420191
KRYW 252055Z AUTO 15005G08KT 10SM SCT060 35/18 A3007 RMK AO2 T03530179